sensor_id;sensor_type;location;lat;lon;timestamp;temperature;humidity
28171;DHT22;15458;53.346;-1.688;2022-11-24T00:00:46;6.40;99.90
28171;DHT22;15458;53.346;-1.688;2022-11-24T00:03:12;6.30;99.90
28171;DHT22;15458;53.346;-1.688;2022-11-24T00:05:38;6.30;99.90
28171;DHT22;15458;53.346;-1.688;2022-11-24T00:08:04;6.30;99.90
28171;DHT22;15458;53.346;-1.688;2022-11-24T00:10:30;6.30;99.90
28171;DHT22;15458;53.346;-1.688;2022-11-24T00:12:55;6.40;99.90
28171;DHT22;15458;53.346;-1.688;2022-11-24T00:15:21;6.30;99.90
28171;DHT22;15458;53.346;-1.688;2022-11-24T00:17:50;6.30;99.90
28171;DHT22;15458;53.346;-1.688;2022-11-24T00:20:15;6.30;99.90
28171;DHT22;15458;53.346;-1.688;2022-11-24T00:22:41;6.30;99.90
28171;DHT22;15458;53.346;-1.688;2022-11-24T00:25:07;6.40;99.90
28171;DHT22;15458;53.346;-1.688;2022-11-24T00:27:33;6.40;99.90
28171;DHT22;15458;53.346;-1.688;2022-11-24T00:29:59;6.40;99.90
28171;DHT22;15458;53.346;-1.688;2022-11-24T00:32:28;6.40;99.90
28171;DHT22;15458;53.346;-1.688;2022-11-24T00:34:54;6.40;99.90
28171;DHT22;15458;53.346;-1.688;2022-11-24T00:37:27;6.50;99.90
28171;DHT22;15458;53.346;-1.688;2022-11-24T00:39:55;6.40;99.90
28171;DHT22;15458;53.346;-1.688;2022-11-24T00:42:23;6.40;99.90
28171;DHT22;15458;53.346;-1.688;2022-11-24T00:44:49;6.40;99.90
28171;DHT22;15458;53.346;-1.688;2022-11-24T00:47:14;6.40;99.90
28171;DHT22;15458;53.346;-1.688;2022-11-24T00:49:40;6.40;99.90
28171;DHT22;15458;53.346;-1.688;2022-11-24T00:52:05;6.40;99.90
28171;DHT22;15458;53.346;-1.688;2022-11-24T00:54:31;6.40;99.90
28171;DHT22;15458;53.346;-1.688;2022-11-24T00:56:57;6.40;99.90
28171;DHT22;15458;53.346;-1.688;2022-11-24T00:59:22;6.40;99.90
28171;DHT22;15458;53.346;-1.688;2022-11-24T01:01:48;6.30;99.90
28171;DHT22;15458;53.346;-1.688;2022-11-24T01:04:14;6.40;99.90
28171;DHT22;15458;53.346;-1.688;2022-11-24T01:06:39;6.40;99.90
28171;DHT22;15458;53.346;-1.688;2022-11-24T01:09:05;6.40;99.90
28171;DHT22;15458;53.346;-1.688;2022-11-24T01:11:33;6.30;99.90
28171;DHT22;15458;53.346;-1.688;2022-11-24T01:14:18;6.40;99.90
28171;DHT22;15458;53.346;-1.688;2022-11-24T01:16:44;6.40;99.90
28171;DHT22;15458;53.346;-1.688;2022-11-24T01:19:10;6.40;99.90
28171;DHT22;15458;53.346;-1.688;2022-11-24T01:21:39;6.40;99.90
28171;DHT22;15458;53.346;-1.688;2022-11-24T01:24:04;6.40;99.90
28171;DHT22;15458;53.346;-1.688;2022-11-24T01:26:30;6.40;99.90
28171;DHT22;15458;53.346;-1.688;2022-11-24T01:28:57;6.40;99.90
28171;DHT22;15458;53.346;-1.688;2022-11-24T01:31:24;6.40;99.90
28171;DHT22;15458;53.346;-1.688;2022-11-24T01:33:50;6.40;99.90
28171;DHT22;15458;53.346;-1.688;2022-11-24T01:36:19;6.40;99.90
28171;DHT22;15458;53.346;-1.688;2022-11-24T01:38:48;6.40;99.90
28171;DHT22;15458;53.346;-1.688;2022-11-24T01:41:19;6.40;99.90
28171;DHT22;15458;53.346;-1.688;2022-11-24T01:43:46;6.30;99.90
28171;DHT22;15458;53.346;-1.688;2022-11-24T01:46:50;6.30;99.90
28171;DHT22;15458;53.346;-1.688;2022-11-24T01:49:20;6.30;99.90
28171;DHT22;15458;53.346;-1.688;2022-11-24T01:51:54;6.30;99.90
28171;DHT22;15458;53.346;-1.688;2022-11-24T01:54:32;6.30;99.90
28171;DHT22;15458;53.346;-1.688;2022-11-24T01:57:06;6.30;99.90
28171;DHT22;15458;53.346;-1.688;2022-11-24T01:59:37;6.20;99.90
28171;DHT22;15458;53.346;-1.688;2022-11-24T02:02:03;6.30;99.90
28171;DHT22;15458;53.346;-1.688;2022-11-24T02:04:31;6.20;99.90
28171;DHT22;15458;53.346;-1.688;2022-11-24T02:06:59;6.30;99.90
28171;DHT22;15458;53.346;-1.688;2022-11-24T02:09:32;6.30;99.90
28171;DHT22;15458;53.346;-1.688;2022-11-24T02:12:00;6.30;99.90
28171;DHT22;15458;53.346;-1.688;2022-11-24T02:14:26;6.30;99.90
28171;DHT22;15458;53.346;-1.688;2022-11-24T02:16:52;6.30;99.90
28171;DHT22;15458;53.346;-1.688;2022-11-24T02:22:07;6.30;99.90
28171;DHT22;15458;53.346;-1.688;2022-11-24T02:27:25;6.30;99.90
28171;DHT22;15458;53.346;-1.688;2022-11-24T02:29:54;6.40;99.90
28171;DHT22;15458;53.346;-1.688;2022-11-24T02:32:20;6.40;99.90
28171;DHT22;15458;53.346;-1.688;2022-11-24T02:34:48;6.40;99.90
28171;DHT22;15458;53.346;-1.688;2022-11-24T02:37:14;6.40;99.90
28171;DHT22;15458;53.346;-1.688;2022-11-24T02:39:42;6.40;99.90
28171;DHT22;15458;53.346;-1.688;2022-11-24T02:42:10;6.40;99.90
28171;DHT22;15458;53.346;-1.688;2022-11-24T02:44:44;6.40;99.90
28171;DHT22;15458;53.346;-1.688;2022-11-24T02:47:11;6.40;99.90
28171;DHT22;15458;53.346;-1.688;2022-11-24T02:49:38;6.30;99.90
28171;DHT22;15458;53.346;-1.688;2022-11-24T02:52:04;6.30;99.90
28171;DHT22;15458;53.346;-1.688;2022-11-24T02:54:30;6.30;99.90
28171;DHT22;15458;53.346;-1.688;2022-11-24T02:56:56;6.30;99.90
28171;DHT22;15458;53.346;-1.688;2022-11-24T02:59:22;6.30;99.90
28171;DHT22;15458;53.346;-1.688;2022-11-24T03:01:48;6.30;99.90
28171;DHT22;15458;53.346;-1.688;2022-11-24T03:04:17;6.30;99.90
28171;DHT22;15458;53.346;-1.688;2022-11-24T03:06:42;6.30;99.90
28171;DHT22;15458;53.346;-1.688;2022-11-24T03:09:09;6.30;99.90
28171;DHT22;15458;53.346;-1.688;2022-11-24T03:11:36;6.30;99.90
28171;DHT22;15458;53.346;-1.688;2022-11-24T03:14:05;6.30;99.90
28171;DHT22;15458;53.346;-1.688;2022-11-24T03:16:31;6.30;99.90
28171;DHT22;15458;53.346;-1.688;2022-11-24T03:18:57;6.30;99.90
28171;DHT22;15458;53.346;-1.688;2022-11-24T03:21:23;6.30;99.90
28171;DHT22;15458;53.346;-1.688;2022-11-24T03:23:48;6.30;99.90
28171;DHT22;15458;53.346;-1.688;2022-11-24T03:26:17;6.30;99.90
28171;DHT22;15458;53.346;-1.688;2022-11-24T03:28:43;6.30;99.90
28171;DHT22;15458;53.346;-1.688;2022-11-24T03:31:09;6.30;99.90
28171;DHT22;15458;53.346;-1.688;2022-11-24T03:33:40;6.30;99.90
28171;DHT22;15458;53.346;-1.688;2022-11-24T03:36:07;6.30;99.90
28171;DHT22;15458;53.346;-1.688;2022-11-24T03:38:33;6.30;99.90
28171;DHT22;15458;53.346;-1.688;2022-11-24T03:40:58;6.30;99.90
28171;DHT22;15458;53.346;-1.688;2022-11-24T03:43:24;6.40;99.90
28171;DHT22;15458;53.346;-1.688;2022-11-24T03:45:50;6.30;99.90
28171;DHT22;15458;53.346;-1.688;2022-11-24T03:48:17;6.40;99.90
28171;DHT22;15458;53.346;-1.688;2022-11-24T03:50:50;6.30;99.90
28171;DHT22;15458;53.346;-1.688;2022-11-24T03:53:16;6.40;99.90
28171;DHT22;15458;53.346;-1.688;2022-11-24T03:55:42;6.30;99.90
28171;DHT22;15458;53.346;-1.688;2022-11-24T03:58:08;6.30;99.90
28171;DHT22;15458;53.346;-1.688;2022-11-24T04:00:33;6.30;99.90
28171;DHT22;15458;53.346;-1.688;2022-11-24T04:02:59;6.30;99.90
28171;DHT22;15458;53.346;-1.688;2022-11-24T04:05:25;6.20;99.90
28171;DHT22;15458;53.346;-1.688;2022-11-24T04:07:54;6.20;99.90
28171;DHT22;15458;53.346;-1.688;2022-11-24T04:10:22;6.20;99.90
28171;DHT22;15458;53.346;-1.688;2022-11-24T04:12:48;6.10;99.90
28171;DHT22;15458;53.346;-1.688;2022-11-24T04:15:15;6.10;99.90
28171;DHT22;15458;53.346;-1.688;2022-11-24T04:17:45;6.10;99.90
28171;DHT22;15458;53.346;-1.688;2022-11-24T04:20:12;6.10;99.90
28171;DHT22;15458;53.346;-1.688;2022-11-24T04:22:38;6.10;99.90
28171;DHT22;15458;53.346;-1.688;2022-11-24T04:25:04;6.10;99.90
28171;DHT22;15458;53.346;-1.688;2022-11-24T04:27:35;6.00;99.90
28171;DHT22;15458;53.346;-1.688;2022-11-24T04:30:01;6.00;99.90
28171;DHT22;15458;53.346;-1.688;2022-11-24T04:32:27;6.00;99.90
28171;DHT22;15458;53.346;-1.688;2022-11-24T04:34:53;6.00;99.90
28171;DHT22;15458;53.346;-1.688;2022-11-24T04:37:18;6.00;99.90
28171;DHT22;15458;53.346;-1.688;2022-11-24T04:39:44;5.90;99.90
28171;DHT22;15458;53.346;-1.688;2022-11-24T04:42:11;5.90;99.90
28171;DHT22;15458;53.346;-1.688;2022-11-24T04:44:36;6.00;99.90
28171;DHT22;15458;53.346;-1.688;2022-11-24T04:47:04;6.00;99.90
28171;DHT22;15458;53.346;-1.688;2022-11-24T04:49:30;5.90;99.90
28171;DHT22;15458;53.346;-1.688;2022-11-24T04:51:56;5.90;99.90
28171;DHT22;15458;53.346;-1.688;2022-11-24T04:54:22;5.90;99.90
28171;DHT22;15458;53.346;-1.688;2022-11-24T04:56:51;5.90;99.90
28171;DHT22;15458;53.346;-1.688;2022-11-24T04:59:17;5.90;99.90
28171;DHT22;15458;53.346;-1.688;2022-11-24T05:01:44;5.90;99.90
28171;DHT22;15458;53.346;-1.688;2022-11-24T05:04:12;5.90;99.90
28171;DHT22;15458;53.346;-1.688;2022-11-24T05:06:38;5.90;99.90
28171;DHT22;15458;53.346;-1.688;2022-11-24T05:09:04;5.90;99.90
28171;DHT22;15458;53.346;-1.688;2022-11-24T05:11:31;5.90;99.90
28171;DHT22;15458;53.346;-1.688;2022-11-24T05:13:57;5.90;99.90
28171;DHT22;15458;53.346;-1.688;2022-11-24T05:16:22;5.90;99.90
28171;DHT22;15458;53.346;-1.688;2022-11-24T05:18:48;5.80;99.90
28171;DHT22;15458;53.346;-1.688;2022-11-24T05:21:14;5.80;99.90
28171;DHT22;15458;53.346;-1.688;2022-11-24T05:23:40;5.80;99.90
28171;DHT22;15458;53.346;-1.688;2022-11-24T05:26:05;5.80;99.90
28171;DHT22;15458;53.346;-1.688;2022-11-24T05:28:31;5.80;99.90
28171;DHT22;15458;53.346;-1.688;2022-11-24T05:31:01;5.80;99.90
28171;DHT22;15458;53.346;-1.688;2022-11-24T05:33:27;5.80;99.90
28171;DHT22;15458;53.346;-1.688;2022-11-24T05:35:54;5.80;99.90
28171;DHT22;15458;53.346;-1.688;2022-11-24T05:38:20;5.80;99.90
28171;DHT22;15458;53.346;-1.688;2022-11-24T05:40:48;5.80;99.90
28171;DHT22;15458;53.346;-1.688;2022-11-24T05:43:15;5.90;99.90
28171;DHT22;15458;53.346;-1.688;2022-11-24T05:45:42;6.00;99.90
28171;DHT22;15458;53.346;-1.688;2022-11-24T05:48:11;6.00;99.90
28171;DHT22;15458;53.346;-1.688;2022-11-24T05:50:37;6.00;99.90
28171;DHT22;15458;53.346;-1.688;2022-11-24T05:53:05;6.00;99.90
28171;DHT22;15458;53.346;-1.688;2022-11-24T05:55:31;6.00;99.90
28171;DHT22;15458;53.346;-1.688;2022-11-24T05:58:01;6.00;99.90
28171;DHT22;15458;53.346;-1.688;2022-11-24T06:00:30;6.10;99.90
28171;DHT22;15458;53.346;-1.688;2022-11-24T06:02:56;6.10;99.90
28171;DHT22;15458;53.346;-1.688;2022-11-24T06:05:23;6.20;99.90
28171;DHT22;15458;53.346;-1.688;2022-11-24T06:07:52;6.20;99.90
28171;DHT22;15458;53.346;-1.688;2022-11-24T06:10:19;6.20;99.90
28171;DHT22;15458;53.346;-1.688;2022-11-24T06:12:49;6.20;99.90
28171;DHT22;15458;53.346;-1.688;2022-11-24T06:15:15;6.20;99.90
28171;DHT22;15458;53.346;-1.688;2022-11-24T06:17:41;6.30;99.90
28171;DHT22;15458;53.346;-1.688;2022-11-24T06:20:08;6.30;99.90
28171;DHT22;15458;53.346;-1.688;2022-11-24T06:22:34;6.30;99.90
28171;DHT22;15458;53.346;-1.688;2022-11-24T06:25:00;6.40;99.90
28171;DHT22;15458;53.346;-1.688;2022-11-24T06:27:26;6.40;99.90
28171;DHT22;15458;53.346;-1.688;2022-11-24T06:29:52;6.30;99.90
28171;DHT22;15458;53.346;-1.688;2022-11-24T06:32:18;6.40;99.90
28171;DHT22;15458;53.346;-1.688;2022-11-24T06:34:43;6.30;99.90
28171;DHT22;15458;53.346;-1.688;2022-11-24T06:37:13;6.30;99.90
28171;DHT22;15458;53.346;-1.688;2022-11-24T06:39:38;6.30;99.90
28171;DHT22;15458;53.346;-1.688;2022-11-24T06:42:05;6.20;99.90
28171;DHT22;15458;53.346;-1.688;2022-11-24T06:44:31;6.20;99.90
28171;DHT22;15458;53.346;-1.688;2022-11-24T06:46:59;6.10;99.90
28171;DHT22;15458;53.346;-1.688;2022-11-24T06:49:28;6.10;99.90
28171;DHT22;15458;53.346;-1.688;2022-11-24T06:51:54;6.10;99.90
28171;DHT22;15458;53.346;-1.688;2022-11-24T06:54:20;6.10;99.90
28171;DHT22;15458;53.346;-1.688;2022-11-24T06:56:46;6.00;99.90
28171;DHT22;15458;53.346;-1.688;2022-11-24T06:59:22;6.00;99.90
28171;DHT22;15458;53.346;-1.688;2022-11-24T07:01:51;6.00;99.90
28171;DHT22;15458;53.346;-1.688;2022-11-24T07:04:17;6.00;99.90
28171;DHT22;15458;53.346;-1.688;2022-11-24T07:06:43;5.90;99.90
28171;DHT22;15458;53.346;-1.688;2022-11-24T07:09:10;5.90;99.90
28171;DHT22;15458;53.346;-1.688;2022-11-24T07:11:37;5.90;99.90
28171;DHT22;15458;53.346;-1.688;2022-11-24T07:14:03;5.80;99.90
28171;DHT22;15458;53.346;-1.688;2022-11-24T07:16:30;5.80;99.90
28171;DHT22;15458;53.346;-1.688;2022-11-24T07:18:56;5.70;99.90
28171;DHT22;15458;53.346;-1.688;2022-11-24T07:21:25;5.70;99.90
28171;DHT22;15458;53.346;-1.688;2022-11-24T07:24:04;5.70;99.90
28171;DHT22;15458;53.346;-1.688;2022-11-24T07:26:30;5.70;99.90
28171;DHT22;15458;53.346;-1.688;2022-11-24T07:29:01;5.70;99.90
28171;DHT22;15458;53.346;-1.688;2022-11-24T07:31:27;5.60;99.90
28171;DHT22;15458;53.346;-1.688;2022-11-24T07:33:54;5.60;99.90
28171;DHT22;15458;53.346;-1.688;2022-11-24T07:36:21;5.60;99.90
28171;DHT22;15458;53.346;-1.688;2022-11-24T07:38:47;5.60;99.90
28171;DHT22;15458;53.346;-1.688;2022-11-24T07:41:19;5.60;99.90
28171;DHT22;15458;53.346;-1.688;2022-11-24T07:43:45;5.50;99.90
28171;DHT22;15458;53.346;-1.688;2022-11-24T07:46:14;5.50;99.90
28171;DHT22;15458;53.346;-1.688;2022-11-24T07:48:55;5.50;99.90
28171;DHT22;15458;53.346;-1.688;2022-11-24T07:51:23;5.50;99.90
28171;DHT22;15458;53.346;-1.688;2022-11-24T07:53:50;5.50;99.90
28171;DHT22;15458;53.346;-1.688;2022-11-24T07:56:15;5.50;99.90
28171;DHT22;15458;53.346;-1.688;2022-11-24T07:58:42;5.50;99.90
28171;DHT22;15458;53.346;-1.688;2022-11-24T08:03:35;5.40;99.90
28171;DHT22;15458;53.346;-1.688;2022-11-24T08:06:01;5.40;99.90
28171;DHT22;15458;53.346;-1.688;2022-11-24T08:08:27;5.50;99.90
28171;DHT22;15458;53.346;-1.688;2022-11-24T08:11:05;5.40;99.90
28171;DHT22;15458;53.346;-1.688;2022-11-24T08:13:31;5.50;99.90
28171;DHT22;15458;53.346;-1.688;2022-11-24T08:15:58;5.40;99.90
28171;DHT22;15458;53.346;-1.688;2022-11-24T08:18:29;5.50;99.90
28171;DHT22;15458;53.346;-1.688;2022-11-24T08:21:00;5.50;99.90
28171;DHT22;15458;53.346;-1.688;2022-11-24T08:23:26;5.50;99.90
28171;DHT22;15458;53.346;-1.688;2022-11-24T08:26:13;5.50;99.90
28171;DHT22;15458;53.346;-1.688;2022-11-24T08:28:40;5.50;99.90
28171;DHT22;15458;53.346;-1.688;2022-11-24T08:31:08;5.60;99.90
28171;DHT22;15458;53.346;-1.688;2022-11-24T08:33:34;5.60;99.90
28171;DHT22;15458;53.346;-1.688;2022-11-24T08:36:12;5.60;99.90
28171;DHT22;15458;53.346;-1.688;2022-11-24T08:38:44;5.70;99.90
28171;DHT22;15458;53.346;-1.688;2022-11-24T08:41:13;5.70;99.90
28171;DHT22;15458;53.346;-1.688;2022-11-24T08:44:00;5.80;99.90
28171;DHT22;15458;53.346;-1.688;2022-11-24T08:46:26;5.80;99.90
28171;DHT22;15458;53.346;-1.688;2022-11-24T08:48:53;5.80;99.90
28171;DHT22;15458;53.346;-1.688;2022-11-24T08:51:22;5.90;99.90
28171;DHT22;15458;53.346;-1.688;2022-11-24T08:53:47;5.90;99.90
28171;DHT22;15458;53.346;-1.688;2022-11-24T08:56:14;5.90;99.90
28171;DHT22;15458;53.346;-1.688;2022-11-24T08:58:40;5.90;99.90
28171;DHT22;15458;53.346;-1.688;2022-11-24T09:01:11;5.80;99.90
28171;DHT22;15458;53.346;-1.688;2022-11-24T09:03:43;5.90;99.90
28171;DHT22;15458;53.346;-1.688;2022-11-24T09:06:09;5.90;99.90
28171;DHT22;15458;53.346;-1.688;2022-11-24T09:08:35;5.90;99.90
28171;DHT22;15458;53.346;-1.688;2022-11-24T09:11:09;5.90;99.90
28171;DHT22;15458;53.346;-1.688;2022-11-24T09:13:37;5.90;99.90
28171;DHT22;15458;53.346;-1.688;2022-11-24T09:16:08;5.90;99.90
28171;DHT22;15458;53.346;-1.688;2022-11-24T09:18:35;5.90;99.90
28171;DHT22;15458;53.346;-1.688;2022-11-24T09:21:16;5.90;99.90
28171;DHT22;15458;53.346;-1.688;2022-11-24T09:23:44;6.00;99.90
28171;DHT22;15458;53.346;-1.688;2022-11-24T09:26:14;6.00;99.90
28171;DHT22;15458;53.346;-1.688;2022-11-24T09:28:40;6.00;99.90
28171;DHT22;15458;53.346;-1.688;2022-11-24T09:31:09;6.00;99.90
28171;DHT22;15458;53.346;-1.688;2022-11-24T09:33:35;6.00;99.90
28171;DHT22;15458;53.346;-1.688;2022-11-24T09:36:01;6.00;99.90
28171;DHT22;15458;53.346;-1.688;2022-11-24T09:38:27;6.10;99.90
28171;DHT22;15458;53.346;-1.688;2022-11-24T09:41:02;6.10;99.90
28171;DHT22;15458;53.346;-1.688;2022-11-24T09:43:55;6.20;99.90
28171;DHT22;15458;53.346;-1.688;2022-11-24T09:49:17;6.30;99.90
28171;DHT22;15458;53.346;-1.688;2022-11-24T09:51:47;6.40;99.90
28171;DHT22;15458;53.346;-1.688;2022-11-24T09:54:21;6.50;99.90
28171;DHT22;15458;53.346;-1.688;2022-11-24T09:56:50;6.60;99.90
28171;DHT22;15458;53.346;-1.688;2022-11-24T09:59:22;6.60;99.90
28171;DHT22;15458;53.346;-1.688;2022-11-24T10:01:49;6.70;99.90
28171;DHT22;15458;53.346;-1.688;2022-11-24T10:04:33;6.80;99.90
28171;DHT22;15458;53.346;-1.688;2022-11-24T10:10:05;6.90;99.90
28171;DHT22;15458;53.346;-1.688;2022-11-24T10:23:35;7.20;99.90
28171;DHT22;15458;53.346;-1.688;2022-11-24T10:26:18;7.20;99.90
28171;DHT22;15458;53.346;-1.688;2022-11-24T10:28:54;7.30;99.90
28171;DHT22;15458;53.346;-1.688;2022-11-24T10:31:33;7.30;99.90
28171;DHT22;15458;53.346;-1.688;2022-11-24T10:34:11;7.30;99.90
28171;DHT22;15458;53.346;-1.688;2022-11-24T10:36:59;7.40;99.90
28171;DHT22;15458;53.346;-1.688;2022-11-24T10:42:15;7.40;99.90
28171;DHT22;15458;53.346;-1.688;2022-11-24T10:44:43;7.40;99.90
28171;DHT22;15458;53.346;-1.688;2022-11-24T10:47:20;7.50;99.90
28171;DHT22;15458;53.346;-1.688;2022-11-24T10:49:59;7.50;99.90
28171;DHT22;15458;53.346;-1.688;2022-11-24T10:52:29;7.50;99.90
28171;DHT22;15458;53.346;-1.688;2022-11-24T10:55:01;7.50;99.90
28171;DHT22;15458;53.346;-1.688;2022-11-24T10:57:33;7.50;99.90
28171;DHT22;15458;53.346;-1.688;2022-11-24T11:00:00;7.50;99.90
28171;DHT22;15458;53.346;-1.688;2022-11-24T11:02:34;7.50;99.90
28171;DHT22;15458;53.346;-1.688;2022-11-24T11:05:25;7.50;99.90
28171;DHT22;15458;53.346;-1.688;2022-11-24T11:08:22;7.60;99.90
28171;DHT22;15458;53.346;-1.688;2022-11-24T11:11:27;7.60;99.90
28171;DHT22;15458;53.346;-1.688;2022-11-24T11:16:39;7.70;99.90
28171;DHT22;15458;53.346;-1.688;2022-11-24T11:24:40;7.80;99.90
28171;DHT22;15458;53.346;-1.688;2022-11-24T11:27:17;7.80;99.90
28171;DHT22;15458;53.346;-1.688;2022-11-24T11:29:42;7.80;99.90
28171;DHT22;15458;53.346;-1.688;2022-11-24T11:32:18;7.80;99.90
28171;DHT22;15458;53.346;-1.688;2022-11-24T11:34:45;7.80;99.90
28171;DHT22;15458;53.346;-1.688;2022-11-24T11:37:13;7.80;99.90
28171;DHT22;15458;53.346;-1.688;2022-11-24T11:39:45;7.80;99.90
28171;DHT22;15458;53.346;-1.688;2022-11-24T11:42:21;7.80;99.90
28171;DHT22;15458;53.346;-1.688;2022-11-24T11:45:09;7.80;99.90
28171;DHT22;15458;53.346;-1.688;2022-11-24T11:47:57;7.80;99.90
28171;DHT22;15458;53.346;-1.688;2022-11-24T11:50:40;7.80;99.90
28171;DHT22;15458;53.346;-1.688;2022-11-24T12:01:54;8.00;99.90
28171;DHT22;15458;53.346;-1.688;2022-11-24T12:04:52;8.00;99.90
28171;DHT22;15458;53.346;-1.688;2022-11-24T12:10:10;8.10;99.90
28171;DHT22;15458;53.346;-1.688;2022-11-24T12:15:43;8.20;99.90
28171;DHT22;15458;53.346;-1.688;2022-11-24T12:21:15;8.20;99.90
28171;DHT22;15458;53.346;-1.688;2022-11-24T12:27:10;8.30;99.90
28171;DHT22;15458;53.346;-1.688;2022-11-24T12:43:11;8.50;99.90
28171;DHT22;15458;53.346;-1.688;2022-11-24T12:51:31;8.60;99.90
28171;DHT22;15458;53.346;-1.688;2022-11-24T12:54:00;8.70;99.90
28171;DHT22;15458;53.346;-1.688;2022-11-24T12:56:56;8.70;99.90
28171;DHT22;15458;53.346;-1.688;2022-11-24T12:59:43;8.80;99.90
28171;DHT22;15458;53.346;-1.688;2022-11-24T13:05:30;8.80;99.90
28171;DHT22;15458;53.346;-1.688;2022-11-24T13:07:59;8.90;99.90
28171;DHT22;15458;53.346;-1.688;2022-11-24T13:10:31;9.00;99.90
28171;DHT22;15458;53.346;-1.688;2022-11-24T13:13:02;9.00;99.90
28171;DHT22;15458;53.346;-1.688;2022-11-24T13:15:30;9.10;99.90
28171;DHT22;15458;53.346;-1.688;2022-11-24T13:17:56;9.10;99.90
28171;DHT22;15458;53.346;-1.688;2022-11-24T13:20:32;9.20;99.90
28171;DHT22;15458;53.346;-1.688;2022-11-24T13:23:01;9.20;99.90
28171;DHT22;15458;53.346;-1.688;2022-11-24T13:25:28;9.20;99.90
28171;DHT22;15458;53.346;-1.688;2022-11-24T13:27:56;9.30;99.90
28171;DHT22;15458;53.346;-1.688;2022-11-24T13:35:40;9.30;99.90
28171;DHT22;15458;53.346;-1.688;2022-11-24T13:47:01;9.30;99.90
28171;DHT22;15458;53.346;-1.688;2022-11-24T13:49:43;9.30;99.90
28171;DHT22;15458;53.346;-1.688;2022-11-24T13:55:11;9.30;99.90
28171;DHT22;15458;53.346;-1.688;2022-11-24T14:02:42;9.20;99.90
28171;DHT22;15458;53.346;-1.688;2022-11-24T14:05:15;9.20;99.90
28171;DHT22;15458;53.346;-1.688;2022-11-24T14:07:45;9.20;99.90
28171;DHT22;15458;53.346;-1.688;2022-11-24T14:10:21;9.20;99.90
28171;DHT22;15458;53.346;-1.688;2022-11-24T14:16:19;9.20;99.90
28171;DHT22;15458;53.346;-1.688;2022-11-24T14:18:45;9.20;99.90
28171;DHT22;15458;53.346;-1.688;2022-11-24T14:23:50;9.10;99.90
28171;DHT22;15458;53.346;-1.688;2022-11-24T14:26:20;9.20;99.90
28171;DHT22;15458;53.346;-1.688;2022-11-24T14:28:50;9.10;99.90
28171;DHT22;15458;53.346;-1.688;2022-11-24T14:31:24;9.20;99.90
28171;DHT22;15458;53.346;-1.688;2022-11-24T14:36:41;8.80;99.90
28171;DHT22;15458;53.346;-1.688;2022-11-24T14:39:13;8.60;99.90
28171;DHT22;15458;53.346;-1.688;2022-11-24T14:41:40;8.40;99.90
28171;DHT22;15458;53.346;-1.688;2022-11-24T14:46:50;8.10;99.90
28171;DHT22;15458;53.346;-1.688;2022-11-24T14:49:24;7.90;99.90
28171;DHT22;15458;53.346;-1.688;2022-11-24T14:51:55;7.80;99.90
28171;DHT22;15458;53.346;-1.688;2022-11-24T14:54:21;7.80;99.90
28171;DHT22;15458;53.346;-1.688;2022-11-24T14:59:26;7.60;99.90
28171;DHT22;15458;53.346;-1.688;2022-11-24T15:01:52;7.50;99.90
28171;DHT22;15458;53.346;-1.688;2022-11-24T15:04:21;7.50;99.90
28171;DHT22;15458;53.346;-1.688;2022-11-24T15:06:59;7.50;99.90
28171;DHT22;15458;53.346;-1.688;2022-11-24T15:12:08;7.40;99.90
28171;DHT22;15458;53.346;-1.688;2022-11-24T15:14:50;7.40;99.90
28171;DHT22;15458;53.346;-1.688;2022-11-24T15:17:19;7.30;99.90
28171;DHT22;15458;53.346;-1.688;2022-11-24T15:19:48;7.30;99.90
28171;DHT22;15458;53.346;-1.688;2022-11-24T15:22:41;7.30;99.90
28171;DHT22;15458;53.346;-1.688;2022-11-24T15:25:31;7.20;99.90
28171;DHT22;15458;53.346;-1.688;2022-11-24T15:27:58;7.20;99.90
28171;DHT22;15458;53.346;-1.688;2022-11-24T15:30:24;7.20;99.90
28171;DHT22;15458;53.346;-1.688;2022-11-24T15:32:52;7.20;99.90
28171;DHT22;15458;53.346;-1.688;2022-11-24T15:35:18;7.20;99.90
28171;DHT22;15458;53.346;-1.688;2022-11-24T15:37:45;7.20;99.90
28171;DHT22;15458;53.346;-1.688;2022-11-24T15:40:11;7.10;99.90
28171;DHT22;15458;53.346;-1.688;2022-11-24T15:42:37;7.10;99.90
28171;DHT22;15458;53.346;-1.688;2022-11-24T15:45:03;7.10;99.90
28171;DHT22;15458;53.346;-1.688;2022-11-24T15:47:30;7.10;99.90
28171;DHT22;15458;53.346;-1.688;2022-11-24T15:49:55;7.00;99.90
28171;DHT22;15458;53.346;-1.688;2022-11-24T15:52:21;7.00;99.90
28171;DHT22;15458;53.346;-1.688;2022-11-24T15:54:51;6.90;99.90
28171;DHT22;15458;53.346;-1.688;2022-11-24T15:57:17;6.90;99.90
28171;DHT22;15458;53.346;-1.688;2022-11-24T15:59:43;6.90;99.90
28171;DHT22;15458;53.346;-1.688;2022-11-24T16:02:09;6.90;99.90
28171;DHT22;15458;53.346;-1.688;2022-11-24T16:04:34;6.90;99.90
28171;DHT22;15458;53.346;-1.688;2022-11-24T16:07:02;6.90;99.90
28171;DHT22;15458;53.346;-1.688;2022-11-24T16:09:33;6.90;99.90
28171;DHT22;15458;53.346;-1.688;2022-11-24T16:12:00;6.90;99.90
28171;DHT22;15458;53.346;-1.688;2022-11-24T16:14:28;7.00;99.90
28171;DHT22;15458;53.346;-1.688;2022-11-24T16:16:55;7.00;99.90
28171;DHT22;15458;53.346;-1.688;2022-11-24T16:19:21;7.10;99.90
28171;DHT22;15458;53.346;-1.688;2022-11-24T16:21:47;7.10;99.90
28171;DHT22;15458;53.346;-1.688;2022-11-24T16:24:13;7.10;99.90
28171;DHT22;15458;53.346;-1.688;2022-11-24T16:26:38;7.00;99.90
28171;DHT22;15458;53.346;-1.688;2022-11-24T16:29:04;7.00;99.90
28171;DHT22;15458;53.346;-1.688;2022-11-24T16:31:31;7.00;99.90
28171;DHT22;15458;53.346;-1.688;2022-11-24T16:33:56;6.90;99.90
28171;DHT22;15458;53.346;-1.688;2022-11-24T16:36:22;6.90;99.90
28171;DHT22;15458;53.346;-1.688;2022-11-24T16:38:48;6.80;99.90
28171;DHT22;15458;53.346;-1.688;2022-11-24T16:41:13;6.70;99.90
28171;DHT22;15458;53.346;-1.688;2022-11-24T16:43:40;6.70;99.90
28171;DHT22;15458;53.346;-1.688;2022-11-24T16:48:40;6.60;99.90
28171;DHT22;15458;53.346;-1.688;2022-11-24T16:51:07;6.50;99.90
28171;DHT22;15458;53.346;-1.688;2022-11-24T16:53:35;6.50;99.90
28171;DHT22;15458;53.346;-1.688;2022-11-24T16:56:01;6.50;99.90
28171;DHT22;15458;53.346;-1.688;2022-11-24T16:58:27;6.50;99.90
28171;DHT22;15458;53.346;-1.688;2022-11-24T17:00:52;6.50;99.90
28171;DHT22;15458;53.346;-1.688;2022-11-24T17:03:18;6.60;99.90
28171;DHT22;15458;53.346;-1.688;2022-11-24T17:05:55;6.50;99.90
28171;DHT22;15458;53.346;-1.688;2022-11-24T17:08:21;6.50;99.90
28171;DHT22;15458;53.346;-1.688;2022-11-24T17:10:47;6.50;99.90
28171;DHT22;15458;53.346;-1.688;2022-11-24T17:13:13;6.50;99.90
28171;DHT22;15458;53.346;-1.688;2022-11-24T17:15:39;6.50;99.90
28171;DHT22;15458;53.346;-1.688;2022-11-24T17:18:05;6.50;99.90
28171;DHT22;15458;53.346;-1.688;2022-11-24T17:20:30;6.50;99.90
28171;DHT22;15458;53.346;-1.688;2022-11-24T17:22:56;6.50;99.90
28171;DHT22;15458;53.346;-1.688;2022-11-24T17:25:22;6.50;99.90
28171;DHT22;15458;53.346;-1.688;2022-11-24T17:27:48;6.60;99.90
28171;DHT22;15458;53.346;-1.688;2022-11-24T17:30:13;6.60;99.90
28171;DHT22;15458;53.346;-1.688;2022-11-24T17:32:41;6.60;99.90
28171;DHT22;15458;53.346;-1.688;2022-11-24T17:35:07;6.70;99.90
28171;DHT22;15458;53.346;-1.688;2022-11-24T17:37:33;6.70;99.90
28171;DHT22;15458;53.346;-1.688;2022-11-24T17:40:06;6.80;99.90
28171;DHT22;15458;53.346;-1.688;2022-11-24T17:42:36;6.80;99.90